Time;durP1;ratioP1;P1;durP2;ratioP2;P2;SDS_P1;SDS_P2;PMS_P1;PMS_P2;Temp;Humidity;BMP_temperature;BMP_pressure;BME280_temperature;BME280_humidity;BME280_pressure;Samples;Min_cycle;Max_cycle;Signal;HPM_P1;HPM_P2
2021/07/14 09:20:09;;;;;;;8.50;2.63;;;;;;;;;;7079781;27;21174;-79
2021/07/14 09:23:31;;;;;;;9.25;3.13;;;;;;;;;;7065109;27;20047;-78
2021/07/14 09:26:53;;;;;;;12.90;2.58;;;;;;;;;;7044999;27;20055;-77
2021/07/14 09:30:16;;;;;;;5.82;2.80;;;;;;;;;;7039648;27;20078;-77
2021/07/14 09:33:40;;;;;;;10.05;3.42;;;;;;;;;;7039948;27;20495;-77
2021/07/14 09:37:03;;;;;;;7.68;2.55;;;;;;;;;;7039801;27;20166;-77
2021/07/14 09:40:24;;;;;;;6.80;2.17;;;;;;;;;;7039642;27;20463;-78
2021/07/14 09:43:45;;;;;;;7.78;1.95;;;;;;;;;;7040452;27;20529;-78
2021/07/14 09:47:18;;;;;;;8.90;2.83;;;;;;;;;;7045189;27;20402;-78
2021/07/14 09:50:41;;;;;;;5.97;2.20;;;;;;;;;;7039245;27;20112;-77
2021/07/14 09:54:03;;;;;;;10.45;2.30;;;;;;;;;;7039540;27;20606;-77
2021/07/14 09:57:24;;;;;;;6.05;2.78;;;;;;;;;;7026393;27;20055;-77
2021/07/14 10:00:48;;;;;;;14.52;2.67;;;;;;;;;;7053696;27;20437;-77
2021/07/14 10:04:24;;;;;;;9.85;2.58;;;;;;;;;;7053970;27;20426;-78
2021/07/14 10:07:44;;;;;;;10.23;2.13;;;;;;;;;;7039396;27;20111;-78
2021/07/14 10:11:21;;;;;;;9.55;2.17;;;;;;;;;;7041840;27;20043;-76
2021/07/14 10:14:41;;;;;;;7.50;2.28;;;;;;;;;;7052472;27;20483;-76
2021/07/14 10:18:02;;;;;;;7.55;2.33;;;;;;;;;;7027557;27;20659;-77
2021/07/14 10:21:23;;;;;;;11.13;3.15;;;;;;;;;;7038669;27;20051;-77
2021/07/14 10:24:43;;;;;;;8.90;2.17;;;;;;;;;;7053404;27;20390;-77
2021/07/14 10:28:05;;;;;;;9.75;2.40;;;;;;;;;;7038603;27;20043;-77
2021/07/14 10:31:26;;;;;;;8.18;1.80;;;;;;;;;;7022933;28;20483;-77
2021/07/14 10:34:46;;;;;;;5.65;2.00;;;;;;;;;;7037813;28;20737;-77
2021/07/14 10:38:22;;;;;;;5.85;1.75;;;;;;;;;;7008180;28;20482;-78
2021/07/14 10:41:44;;;;;;;11.30;2.33;;;;;;;;;;7032890;28;20119;-77
2021/07/14 10:45:05;;;;;;;4.80;2.13;;;;;;;;;;7019506;28;20162;-77
2021/07/14 10:48:26;;;;;;;6.15;2.20;;;;;;;;;;7020725;28;20483;-78
2021/07/14 10:51:46;;;;;;;9.48;1.83;;;;;;;;;;7040100;28;20058;-76
2021/07/14 10:55:09;;;;;;;5.78;2.10;;;;;;;;;;7024326;28;20035;-77
2021/07/14 10:58:30;;;;;;;7.97;2.20;;;;;;;;;;7044382;28;20467;-76
2021/07/14 11:01:52;;;;;;;9.20;2.22;;;;;;;;;;7056275;28;20496;-76
2021/07/14 11:05:14;;;;;;;7.38;2.03;;;;;;;;;;7054596;28;20083;-76
2021/07/14 11:08:37;;;;;;;11.93;2.20;;;;;;;;;;7061651;28;20039;-76
2021/07/14 11:11:58;;;;;;;8.75;2.50;;;;;;;;;;7055740;28;20054;-76
2021/07/14 11:15:33;;;;;;;5.40;2.33;;;;;;;;;;7060055;28;20051;-76
2021/07/14 11:19:27;;;;;;;6.40;2.13;;;;;;;;;;7066308;28;20051;-75
2021/07/14 11:22:49;;;;;;;8.43;2.30;;;;;;;;;;7048356;28;20054;-76
2021/07/14 11:26:12;;;;;;;7.50;2.05;;;;;;;;;;7069293;28;20039;-75
2021/07/14 11:29:39;;;;;;;6.60;2.55;;;;;;;;;;7055103;28;20050;-75
2021/07/14 11:33:00;;;;;;;6.68;1.80;;;;;;;;;;7077559;28;20039;-75
2021/07/14 11:36:39;;;;;;;5.93;2.35;;;;;;;;;;7067407;28;21706;-76
2021/07/14 11:40:17;;;;;;;8.45;2.15;;;;;;;;;;7066674;28;20056;-76
2021/07/14 11:43:39;;;;;;;;;;;;;;;;;;7069624;28;20508;-76
2021/07/14 11:47:31;;;;;;;6.18;1.92;;;;;;;;;;7060610;28;19915;-77
2021/07/14 11:51:15;;;;;;;7.47;2.38;;;;;;;;;;7071482;28;20460;-75
2021/07/14 11:54:35;;;;;;;6.38;2.10;;;;;;;;;;7066281;28;20142;-76
2021/07/14 11:57:56;;;;;;;8.15;2.53;;;;;;;;;;7068479;28;20107;-76
2021/07/14 12:01:24;;;;;;;7.80;2.13;;;;;;;;;;7070291;28;20091;-76
2021/07/14 12:05:05;;;;;;;7.27;2.30;;;;;;;;;;7067684;28;20452;-76
2021/07/14 12:08:36;;;;;;;8.02;1.80;;;;;;;;;;7052115;28;20859;-76
2021/07/14 12:12:05;;;;;;;9.25;1.70;;;;;;;;;;7052980;28;20134;-75
2021/07/14 12:15:26;;;;;;;6.20;2.00;;;;;;;;;;7071860;28;20047;-77
2021/07/14 12:18:57;;;;;;;7.13;2.47;;;;;;;;;;7068042;28;20592;-76
2021/07/14 12:22:19;;;;;;;7.70;1.83;;;;;;;;;;7052909;28;20059;-76
2021/07/14 12:25:40;;;;;;;8.20;2.47;;;;;;;;;;7053877;28;20124;-76
2021/07/14 12:29:22;;;;;;;7.10;2.22;;;;;;;;;;7061427;28;20048;-75
2021/07/14 12:32:55;;;;;;;5.18;1.70;;;;;;;;;;7059652;28;20054;-76
2021/07/14 12:36:17;;;;;;;7.22;2.10;;;;;;;;;;7063856;28;20126;-75
2021/07/14 12:39:37;;;;;;;4.78;1.95;;;;;;;;;;7078219;28;20095;-76
2021/07/14 12:43:07;;;;;;;7.43;1.95;;;;;;;;;;7072285;28;20051;-76
2021/07/14 12:46:28;;;;;;;5.95;2.03;;;;;;;;;;7063768;28;20094;-76
2021/07/14 12:49:50;;;;;;;4.05;1.40;;;;;;;;;;7065568;28;20066;-75
2021/07/14 12:53:10;;;;;;;7.25;1.95;;;;;;;;;;7070260;27;20039;-75
2021/07/14 12:56:31;;;;;;;10.43;2.20;;;;;;;;;;7079398;28;20408;-75
2021/07/14 12:59:52;;;;;;;11.73;2.42;;;;;;;;;;7077535;28;20096;-76
2021/07/14 13:03:22;;;;;;;6.97;1.75;;;;;;;;;;7026176;28;20463;-77
2021/07/14 13:06:43;;;;;;;4.18;1.73;;;;;;;;;;7023646;28;20047;-77
2021/07/14 13:10:06;;;;;;;5.85;1.92;;;;;;;;;;7044176;28;20051;-77
2021/07/14 13:13:27;;;;;;;4.50;1.80;;;;;;;;;;7038984;28;20797;-77
2021/07/14 13:16:47;;;;;;;3.17;1.50;;;;;;;;;;7042038;28;20460;-76
2021/07/14 13:20:18;;;;;;;4.95;1.40;;;;;;;;;;7030496;28;20054;-78
2021/07/14 13:23:38;;;;;;;3.05;1.48;;;;;;;;;;7036985;28;20059;-77
2021/07/14 13:27:00;;;;;;;7.68;2.00;;;;;;;;;;7030556;22;20464;-77
2021/07/14 13:30:27;;;;;;;4.85;1.45;;;;;;;;;;6959372;28;20040;-78
2021/07/14 13:33:56;;;;;;;2.22;1.20;;;;;;;;;;6982743;28;20079;-77
2021/07/14 13:37:26;;;;;;;4.13;1.40;;;;;;;;;;6962254;28;20160;-78
2021/07/14 13:40:46;;;;;;;3.47;1.48;;;;;;;;;;6944141;28;20041;-80
2021/07/14 13:44:08;;;;;;;7.30;1.95;;;;;;;;;;6945233;28;20102;-79
2021/07/14 13:47:29;;;;;;;3.22;1.30;;;;;;;;;;6951752;28;20048;-79
2021/07/14 13:50:53;;;;;;;6.63;1.48;;;;;;;;;;6975823;28;20401;-78
2021/07/14 13:54:26;;;;;;;4.78;1.42;;;;;;;;;;6971381;28;20847;-78
2021/07/14 13:57:46;;;;;;;2.88;1.45;;;;;;;;;;6964926;28;20055;-78
2021/07/14 14:01:07;;;;;;;7.93;1.60;;;;;;;;;;6964450;28;20044;-78
2021/07/14 14:04:28;;;;;;;9.07;1.33;;;;;;;;;;6983676;28;20052;-78
2021/07/14 14:07:49;;;;;;;7.10;1.50;;;;;;;;;;6985474;28;20155;-78
2021/07/14 14:11:10;;;;;;;7.70;1.40;;;;;;;;;;6981427;28;20051;-78
2021/07/14 14:14:31;;;;;;;11.80;1.67;;;;;;;;;;6963904;28;20064;-78
2021/07/14 14:17:56;;;;;;;5.18;1.20;;;;;;;;;;6970408;28;20074;-77
2021/07/14 14:21:23;;;;;;;4.22;1.25;;;;;;;;;;6970664;28;20111;-78
2021/07/14 14:24:44;;;;;;;4.95;1.45;;;;;;;;;;6947020;28;20171;-78
2021/07/14 14:28:14;;;;;;;5.30;1.38;;;;;;;;;;6973741;28;20083;-78
2021/07/14 14:31:35;;;;;;;5.25;1.30;;;;;;;;;;6980817;28;20044;-79
2021/07/14 14:34:55;;;;;;;11.07;1.38;;;;;;;;;;6956320;28;20478;-78
2021/07/14 14:38:16;;;;;;;6.72;1.33;;;;;;;;;;6979948;28;20067;-79
2021/07/14 14:41:37;;;;;;;6.80;1.25;;;;;;;;;;6974635;28;20804;-79
2021/07/14 14:44:58;;;;;;;4.25;1.20;;;;;;;;;;6980454;28;20101;-79
2021/07/14 14:48:18;;;;;;;6.57;1.10;;;;;;;;;;6981458;28;20163;-79
2021/07/14 14:51:42;;;;;;;6.53;1.40;;;;;;;;;;6973401;28;20048;-79
2021/07/14 14:55:04;;;;;;;6.75;1.17;;;;;;;;;;6981774;28;20059;-80
2021/07/14 14:58:24;;;;;;;3.47;1.75;;;;;;;;;;6978881;28;20063;-78
2021/07/14 15:01:45;;;;;;;4.32;1.40;;;;;;;;;;6965886;28;20087;-78
2021/07/14 15:05:06;;;;;;;6.82;1.35;;;;;;;;;;6941910;28;20806;-78
2021/07/14 15:08:27;;;;;;;4.78;1.08;;;;;;;;;;6977722;28;20091;-79
2021/07/14 15:11:47;;;;;;;3.78;1.17;;;;;;;;;;6966820;28;20040;-78
2021/07/14 15:15:08;;;;;;;1.50;1.02;;;;;;;;;;6968825;28;20142;-81
2021/07/14 15:18:37;;;;;;;2.50;0.95;;;;;;;;;;6968079;28;20112;-80
2021/07/14 15:21:57;;;;;;;5.40;1.17;;;;;;;;;;6969916;28;20045;-79
2021/07/14 15:25:37;;;;;;;1.70;1.02;;;;;;;;;;6957171;28;20045;-79
2021/07/14 15:28:57;;;;;;;7.45;1.17;;;;;;;;;;6965177;28;20133;-79
2021/07/14 15:32:18;;;;;;;3.15;1.17;;;;;;;;;;6963131;28;20184;-78
2021/07/14 15:35:38;;;;;;;5.43;1.10;;;;;;;;;;6965315;28;20063;-78
2021/07/14 15:38:59;;;;;;;3.90;1.50;;;;;;;;;;6957038;28;20078;-78
2021/07/14 15:42:19;;;;;;;3.78;1.00;;;;;;;;;;6977431;28;20048;-78
2021/07/14 15:45:39;;;;;;;3.90;1.55;;;;;;;;;;6968591;28;20103;-79
2021/07/14 15:49:00;;;;;;;1.63;0.90;;;;;;;;;;6962516;28;20493;-78
2021/07/14 15:52:20;;;;;;;3.72;1.00;;;;;;;;;;6963306;28;20045;-79
2021/07/14 15:55:43;;;;;;;2.00;0.98;;;;;;;;;;6961610;28;20056;-79
2021/07/14 15:59:03;;;;;;;5.45;0.93;;;;;;;;;;6959600;28;20480;-80
2021/07/14 16:02:24;;;;;;;3.63;1.15;;;;;;;;;;6961232;28;20580;-79
2021/07/14 16:05:45;;;;;;;2.72;1.17;;;;;;;;;;6973408;28;20756;-79
2021/07/14 16:09:06;;;;;;;14.27;1.75;;;;;;;;;;6979394;28;20061;-79
2021/07/14 16:12:26;;;;;;;16.58;1.90;;;;;;;;;;6974125;28;20052;-78
2021/07/14 16:15:49;;;;;;;7.15;1.48;;;;;;;;;;6978647;28;20616;-85
2021/07/14 16:19:10;;;;;;;7.95;1.30;;;;;;;;;;6980392;28;20056;-79
2021/07/14 16:22:31;;;;;;;10.55;1.30;;;;;;;;;;6986369;28;20508;-79
2021/07/14 16:25:52;;;;;;;16.15;1.58;;;;;;;;;;6973948;28;20505;-78
2021/07/14 16:29:12;;;;;;;16.40;1.52;;;;;;;;;;6986342;28;20036;-80
2021/07/14 16:32:33;;;;;;;12.15;1.35;;;;;;;;;;6987040;28;20044;-81
2021/07/14 16:35:53;;;;;;;5.10;1.38;;;;;;;;;;6987274;28;20450;-80
2021/07/14 16:39:14;;;;;;;27.60;1.90;;;;;;;;;;6986550;28;20060;-78
2021/07/14 16:42:34;;;;;;;17.75;2.13;;;;;;;;;;6978319;28;20060;-78
2021/07/14 16:45:54;;;;;;;31.75;3.75;;;;;;;;;;6990269;28;20059;-77
2021/07/14 16:49:15;;;;;;;31.95;3.08;;;;;;;;;;6989322;28;20054;-78
2021/07/14 16:52:39;;;;;;;28.00;4.15;;;;;;;;;;6989015;28;20152;-77
2021/07/14 16:56:00;;;;;;;30.63;3.30;;;;;;;;;;6991166;28;20395;-78
2021/07/14 16:59:21;;;;;;;14.13;2.28;;;;;;;;;;6984250;28;20577;-79
2021/07/14 17:02:42;;;;;;;9.07;1.92;;;;;;;;;;6964123;28;20055;-79
2021/07/14 17:06:03;;;;;;;12.95;2.60;;;;;;;;;;6960901;28;20056;-78
2021/07/14 17:09:23;;;;;;;5.20;1.77;;;;;;;;;;6961080;28;20049;-79
2021/07/14 17:12:43;;;;;;;12.93;1.85;;;;;;;;;;6960694;28;20137;-79
2021/07/14 17:16:07;;;;;;;4.85;1.40;;;;;;;;;;6961014;28;20576;-78
2021/07/14 17:19:28;;;;;;;3.20;1.17;;;;;;;;;;6942817;28;20171;-78
2021/07/14 17:22:48;;;;;;;3.58;1.40;;;;;;;;;;6963074;28;20079;-77
2021/07/14 17:26:09;;;;;;;8.15;1.95;;;;;;;;;;6982019;28;20068;-77
2021/07/14 17:29:29;;;;;;;5.25;1.30;;;;;;;;;;6994639;28;20123;-78
2021/07/14 17:32:50;;;;;;;4.72;1.10;;;;;;;;;;6995441;28;20106;-80
2021/07/14 17:36:11;;;;;;;4.65;1.45;;;;;;;;;;6991214;28;20040;-78
2021/07/14 17:39:31;;;;;;;4.70;1.27;;;;;;;;;;6996766;28;20052;-78
2021/07/14 17:42:51;;;;;;;3.28;1.25;;;;;;;;;;7000547;28;20044;-78
2021/07/14 17:46:12;;;;;;;3.42;1.02;;;;;;;;;;7000368;28;20040;-78
2021/07/14 17:49:32;;;;;;;4.47;1.20;;;;;;;;;;7000359;28;20052;-78
2021/07/14 17:52:53;;;;;;;2.17;1.10;;;;;;;;;;7000171;28;20044;-78
2021/07/14 17:56:13;;;;;;;4.75;1.30;;;;;;;;;;7000299;28;20127;-78
2021/07/14 17:59:33;;;;;;;3.40;1.00;;;;;;;;;;6999647;28;20144;-78
2021/07/14 18:02:54;;;;;;;3.80;1.15;;;;;;;;;;7000222;28;20178;-78
2021/07/14 18:06:14;;;;;;;4.43;1.38;;;;;;;;;;6999770;28;20044;-78
2021/07/14 18:09:35;;;;;;;2.53;1.25;;;;;;;;;;7000004;28;20401;-77
2021/07/14 18:12:55;;;;;;;6.05;1.30;;;;;;;;;;6999423;28;20493;-78
2021/07/14 18:16:16;;;;;;;4.95;1.48;;;;;;;;;;6999928;28;20047;-78
2021/07/14 18:19:36;;;;;;;6.20;1.30;;;;;;;;;;6999597;28;20517;-78
2021/07/14 18:22:57;;;;;;;4.88;1.58;;;;;;;;;;7003950;28;20044;-78
2021/07/14 18:26:17;;;;;;;6.65;1.40;;;;;;;;;;7000103;28;20422;-79
2021/07/14 18:29:38;;;;;;;4.85;1.45;;;;;;;;;;6998127;28;20411;-79
2021/07/14 18:32:58;;;;;;;5.68;1.10;;;;;;;;;;6998613;28;20460;-79
2021/07/14 18:36:20;;;;;;;4.97;1.38;;;;;;;;;;6995623;28;20052;-78
2021/07/14 18:39:40;;;;;;;2.30;1.20;;;;;;;;;;7001366;28;20182;-77
2021/07/14 18:43:01;;;;;;;7.85;1.48;;;;;;;;;;6994387;28;20049;-77
2021/07/14 18:46:22;;;;;;;2.78;1.23;;;;;;;;;;7020532;28;20051;-78
2021/07/14 18:49:42;;;;;;;3.33;1.23;;;;;;;;;;7007158;28;20079;-77
2021/07/14 18:53:03;;;;;;;5.57;1.30;;;;;;;;;;7008378;28;20056;-78
2021/07/14 18:56:23;;;;;;;2.70;1.73;;;;;;;;;;7004417;28;20064;-77
2021/07/14 18:59:44;;;;;;;3.50;2.13;;;;;;;;;;7004154;28;20083;-77
2021/07/14 19:03:04;;;;;;;4.28;2.08;;;;;;;;;;6997468;28;20390;-77
2021/07/14 19:06:24;;;;;;;8.77;1.88;;;;;;;;;;6997807;28;20056;-77
2021/07/14 19:09:45;;;;;;;6.43;1.58;;;;;;;;;;6998508;28;20098;-77
2021/07/14 19:13:05;;;;;;;4.63;1.35;;;;;;;;;;6998461;28;20044;-77
2021/07/14 19:16:26;;;;;;;5.40;1.30;;;;;;;;;;6998305;28;20080;-77
2021/07/14 19:19:48;;;;;;;5.40;1.40;;;;;;;;;;6998007;28;20509;-78
2021/07/14 19:23:09;;;;;;;5.70;1.45;;;;;;;;;;6994814;28;20189;-77
2021/07/14 19:26:29;;;;;;;5.18;1.40;;;;;;;;;;6998408;28;20383;-78
2021/07/14 19:29:50;;;;;;;4.72;1.30;;;;;;;;;;6995903;28;20044;-77
2021/07/14 19:33:10;;;;;;;7.22;2.13;;;;;;;;;;6988212;28;20052;-78
2021/07/14 19:36:31;;;;;;;3.55;2.00;;;;;;;;;;6994811;28;20075;-77
2021/07/14 19:39:51;;;;;;;11.32;1.80;;;;;;;;;;6997651;28;20055;-77
2021/07/14 19:43:11;;;;;;;5.30;1.73;;;;;;;;;;6998001;28;20094;-78
2021/07/14 19:46:32;;;;;;;8.98;1.80;;;;;;;;;;6997963;28;20052;-78
2021/07/14 19:49:52;;;;;;;6.40;1.50;;;;;;;;;;6996205;28;20047;-77
2021/07/14 19:53:13;;;;;;;4.40;1.83;;;;;;;;;;6997449;28;20139;-79
2021/07/14 19:56:33;;;;;;;12.77;4.93;;;;;;;;;;6997206;28;20055;-79
2021/07/14 19:59:54;;;;;;;18.75;5.32;;;;;;;;;;6997372;28;20051;-79
2021/07/14 20:03:14;;;;;;;18.23;5.30;;;;;;;;;;6998354;28;20048;-76
2021/07/14 20:06:35;;;;;;;10.82;4.30;;;;;;;;;;7006465;28;20136;-76
2021/07/14 20:09:55;;;;;;;10.05;3.10;;;;;;;;;;7000010;28;20051;-76
2021/07/14 20:13:16;;;;;;;9.48;3.60;;;;;;;;;;7000401;28;20115;-76
2021/07/14 20:16:36;;;;;;;7.68;2.70;;;;;;;;;;6992997;28;20060;-77
2021/07/14 20:19:56;;;;;;;6.82;2.10;;;;;;;;;;6995603;28;20048;-76
2021/07/14 20:23:17;;;;;;;5.53;2.10;;;;;;;;;;6995102;28;20482;-76
2021/07/14 20:26:37;;;;;;;8.55;2.13;;;;;;;;;;6999902;28;20083;-76
2021/07/14 20:29:58;;;;;;;5.15;2.00;;;;;;;;;;6998166;28;20040;-76
2021/07/14 20:33:19;;;;;;;5.78;1.90;;;;;;;;;;6997915;28;20501;-76
2021/07/14 20:36:39;;;;;;;9.95;1.92;;;;;;;;;;7001023;28;20087;-76
2021/07/14 20:39:59;;;;;;;5.13;1.77;;;;;;;;;;7002427;28;20569;-76
2021/07/14 20:43:20;;;;;;;3.97;1.60;;;;;;;;;;7001332;28;20057;-77
2021/07/14 20:46:40;;;;;;;2.33;1.48;;;;;;;;;;7007428;28;20040;-76
2021/07/14 20:50:02;;;;;;;6.32;1.55;;;;;;;;;;7017566;28;20061;-76
2021/07/14 20:53:22;;;;;;;7.75;1.70;;;;;;;;;;7014753;28;20050;-76
2021/07/14 20:56:43;;;;;;;3.17;1.38;;;;;;;;;;7007481;28;20041;-76
2021/07/14 21:00:06;;;;;;;7.47;1.25;;;;;;;;;;7004085;28;20460;-76
2021/07/14 21:03:27;;;;;;;2.78;1.38;;;;;;;;;;6995533;28;20056;-76
2021/07/14 21:06:47;;;;;;;6.15;1.33;;;;;;;;;;6999988;28;20044;-76
2021/07/14 21:10:08;;;;;;;2.85;1.52;;;;;;;;;;6999979;28;20045;-76
2021/07/14 21:13:28;;;;;;;4.93;1.83;;;;;;;;;;7001687;28;20086;-76
2021/07/14 21:16:49;;;;;;;3.95;1.45;;;;;;;;;;7001841;28;20145;-77
2021/07/14 21:20:10;;;;;;;4.60;1.50;;;;;;;;;;7001388;28;20462;-77
2021/07/14 21:23:31;;;;;;;2.08;1.45;;;;;;;;;;6979850;28;20464;-77
2021/07/14 21:26:52;;;;;;;2.58;1.20;;;;;;;;;;6998788;28;20036;-76
2021/07/14 21:30:14;;;;;;;5.55;1.55;;;;;;;;;;7001087;28;20044;-76
2021/07/14 21:33:34;;;;;;;3.58;1.70;;;;;;;;;;6999182;28;20099;-76
2021/07/14 21:36:56;;;;;;;6.93;1.63;;;;;;;;;;7000659;28;20040;-75
2021/07/14 21:40:20;;;;;;;4.80;1.55;;;;;;;;;;6995959;28;20151;-76
2021/07/14 21:43:40;;;;;;;3.75;1.80;;;;;;;;;;6999073;28;20043;-76
2021/07/14 21:47:02;;;;;;;4.55;1.60;;;;;;;;;;6995266;28;20044;-76
2021/07/14 21:50:28;;;;;;;4.90;1.55;;;;;;;;;;6995747;28;20076;-77
2021/07/14 21:53:48;;;;;;;6.65;1.85;;;;;;;;;;6997539;28;20486;-76
2021/07/14 21:57:09;;;;;;;3.40;1.75;;;;;;;;;;6994635;28;20083;-76
2021/07/14 22:00:35;;;;;;;7.10;1.80;;;;;;;;;;7004917;28;20123;-75
2021/07/14 22:03:55;;;;;;;4.57;1.63;;;;;;;;;;7014176;28;20036;-76
2021/07/14 22:07:16;;;;;;;3.85;1.35;;;;;;;;;;7001499;28;20052;-76
2021/07/14 22:10:49;;;;;;;5.72;1.65;;;;;;;;;;7016252;28;20041;-75
2021/07/14 22:14:10;;;;;;;5.70;1.55;;;;;;;;;;7015666;28;20493;-76
2021/07/14 22:17:30;;;;;;;6.65;1.40;;;;;;;;;;7009659;28;20044;-76
2021/07/14 22:20:51;;;;;;;3.08;1.05;;;;;;;;;;7006443;28;20058;-76
2021/07/14 22:24:11;;;;;;;3.50;1.30;;;;;;;;;;7006471;28;20059;-76
2021/07/14 22:27:33;;;;;;;5.57;1.45;;;;;;;;;;7003611;28;20053;-76
2021/07/14 22:30:58;;;;;;;7.13;1.60;;;;;;;;;;7002944;28;20048;-75
2021/07/14 22:34:21;;;;;;;4.45;1.35;;;;;;;;;;6998002;28;20044;-76
2021/07/14 22:37:42;;;;;;;1.73;1.23;;;;;;;;;;6999261;28;20124;-76
2021/07/14 22:41:03;;;;;;;2.90;1.35;;;;;;;;;;7006032;28;20056;-75
2021/07/14 22:44:23;;;;;;;5.18;1.20;;;;;;;;;;7012798;28;20556;-76
2021/07/14 22:47:44;;;;;;;1.88;1.20;;;;;;;;;;7005416;28;20390;-76
2021/07/14 22:51:05;;;;;;;2.60;1.40;;;;;;;;;;6988633;28;20570;-76
2021/07/14 22:54:26;;;;;;;3.13;1.52;;;;;;;;;;7003154;28;20044;-76
2021/07/14 22:57:47;;;;;;;3.08;1.10;;;;;;;;;;7011635;28;20068;-76
2021/07/14 23:01:07;;;;;;;3.35;1.27;;;;;;;;;;6987857;28;20051;-77
2021/07/14 23:04:28;;;;;;;7.22;1.75;;;;;;;;;;6996757;28;20033;-77
2021/07/14 23:07:49;;;;;;;4.05;1.35;;;;;;;;;;6993141;28;20044;-76
2021/07/14 23:11:10;;;;;;;5.18;1.58;;;;;;;;;;6999887;28;20103;-77
2021/07/14 23:14:31;;;;;;;3.33;2.13;;;;;;;;;;6998531;28;20048;-76
2021/07/14 23:17:52;;;;;;;16.92;2.75;;;;;;;;;;6991306;28;20127;-76
2021/07/14 23:21:14;;;;;;;18.20;2.10;;;;;;;;;;6986457;28;20548;-76
2021/07/14 23:24:34;;;;;;;13.95;2.22;;;;;;;;;;6998890;28;20052;-76
2021/07/14 23:27:55;;;;;;;2.80;1.20;;;;;;;;;;6998244;28;20467;-76
2021/07/14 23:31:16;;;;;;;6.53;1.33;;;;;;;;;;6997195;28;20080;-76
2021/07/14 23:34:37;;;;;;;6.47;1.42;;;;;;;;;;6997393;28;20469;-76
2021/07/14 23:37:57;;;;;;;6.43;1.38;;;;;;;;;;6979460;28;20482;-76
2021/07/14 23:41:18;;;;;;;5.38;1.20;;;;;;;;;;6998244;28;20136;-76
2021/07/14 23:44:38;;;;;;;1.85;1.25;;;;;;;;;;6997723;28;20048;-76
2021/07/14 23:47:59;;;;;;;11.57;2.47;;;;;;;;;;6995750;28;20514;-76
2021/07/14 23:51:19;;;;;;;8.27;1.38;;;;;;;;;;6997183;28;20076;-76
2021/07/14 23:54:42;;;;;;;1.95;1.10;;;;;;;;;;6997539;28;20080;-76
2021/07/14 23:58:03;;;;;;;3.55;1.33;;;;;;;;;;6996897;28;20063;-76
